Terminal Aerodrome Forecast
Issued by NWS Sterling, VA

Current Version | Previous Version | Graphics & Text | Print | Product List | Glossary On
Versions: 1 2 3 4 5 6 7 8 9 10 11 12 13 14 15 16 17 18 19 20 21 22 23 24 25 26
726
FTUS41 KLWX 150915 AAA
TAFIAD
TAF AMD
KIAD 150915Z 1509/1612 01005KT P6SM SKC
     FM151700 VRB03KT P6SM BKN035
     FM151800 VRB03KT P6SM OVC025=

USA.gov is the U.S. government's official web portal to all federal, state and local government web resources and services.